LPMA/FNC METAR and TAF weather

Enter ICAO airport designator
Station Type Date Time Source
LPMA METAR 2020/09/19 06:00 UTC NOAA

LPMA 190600Z 30003KT 260V340 9999 FEW015 20/15 Q1018


Station Type Date Time Source
LPMA Decoded METAR 2020/09/19 06:00 UTC NOAA

Aeroporto Da Madeira, Portugal (LPMA) 32-41-52N 016-46-28W
Sep 19, 2020 - 02:00 AM EDT / 2020.09.19 0600 UTC
Wind: from the WNW (300 degrees) at 3 MPH (3 KT) (direction variable):0
Visibility: greater than 7 mile(s):0
Sky conditions: mostly clear
Temperature: 68 F (20 C)
Dew Point: 59 F (15 C)
Relative Humidity: 72%
Pressure (altimeter): 30.06 in. Hg (1018 hPa)
ob: LPMA 190600Z 30003KT 260V340 9999 FEW015 20/15 Q1018
cycle: 6

Station Type Date Time Source
LPMA TAF 2020/09/19 06:18 UTC NOAA

TAF LPMA 190500Z 1906/2006 VRB05KT 9999 SCT015
BECMG 1918/1921 03010KT

Example: see airport list